Time;durP1;ratioP1;P1;durP2;ratioP2;P2;SDS_P1;SDS_P2;PMS_P1;PMS_P2;Temp;Humidity;BMP_temperature;BMP_pressure;BME280_temperature;BME280_humidity;BME280_pressure;Samples;Min_cycle;Max_cycle;Signal;HPM_P1;HPM_P2
2023/12/10 00:01:38;;;;;;;13.30;5.10;;;;;;;7.15;61.95;99078.94;10431224;28;20236;-76
2023/12/10 00:06:46;;;;;;;16.90;5.07;;;;;;;7.31;61.46;99081.47;10430492;28;20275;-75
2023/12/10 00:11:54;;;;;;;16.87;4.97;;;;;;;7.96;59.80;99057.84;10440896;28;20262;-76
2023/12/10 00:17:05;;;;;;;20.50;5.03;;;;;;;8.23;59.60;99027.00;10441242;28;20322;-76
2023/12/10 00:22:13;;;;;;;14.03;5.07;;;;;;;7.92;59.94;99053.91;10435300;28;20271;-76
2023/12/10 00:27:21;;;;;;;18.37;4.97;;;;;;;7.35;59.75;99175.09;10436875;28;20314;-76
2023/12/10 00:32:29;;;;;;;18.03;4.83;;;;;;;7.64;59.83;99137.06;10434032;28;20463;-76
2023/12/10 00:37:40;;;;;;;16.50;4.23;;;;;;;7.55;59.52;99152.28;10431029;28;20236;-75
2023/12/10 00:42:48;;;;;;;25.03;5.57;;;;;;;7.74;59.50;99124.31;10426992;28;20231;-75
2023/12/10 00:47:56;;;;;;;12.73;5.07;;;;;;;7.21;60.22;99157.22;10439940;28;20500;-76
2023/12/10 00:53:04;;;;;;;11.80;4.23;;;;;;;7.12;60.38;99183.06;10440738;28;20253;-75
2023/12/10 00:58:14;;;;;;;22.07;5.73;;;;;;;6.62;60.65;99278.19;10423413;28;20236;-75
2023/12/10 01:03:29;;;;;;;15.63;4.63;;;;;;;7.21;59.75;99211.28;10431668;28;20232;-75
2023/12/10 01:08:44;;;;;;;18.60;5.20;;;;;;;7.07;60.33;99196.06;10442852;28;20645;-75
2023/12/10 01:13:52;;;;;;;17.50;5.00;;;;;;;7.47;58.60;99216.25;10441888;28;20267;-75
2023/12/10 01:19:02;;;;;;;26.70;7.23;;;;;;;7.49;59.41;99177.00;10431574;28;20247;-75
2023/12/10 01:24:16;;;;;;;22.13;5.03;;;;;;;7.11;60.02;99224.00;10433478;28;20616;-78
2023/12/10 01:29:25;;;;;;;18.97;5.37;;;;;;;7.90;59.54;99154.50;10443797;28;20285;-74
2023/12/10 01:34:33;;;;;;;15.63;5.23;;;;;;;7.21;61.45;99213.94;10443873;28;20694;-74
2023/12/10 01:39:42;;;;;;;14.67;4.63;;;;;;;6.31;62.87;99309.97;10442704;28;20243;-74
2023/12/10 01:44:59;;;;;;;19.13;4.77;;;;;;;6.67;63.75;99208.53;10439261;28;20235;-75
2023/12/10 01:50:11;;;;;;;15.00;4.57;;;;;;;7.50;62.26;99137.88;10434681;28;20240;-76
2023/12/10 01:55:20;;;;;;;15.97;5.63;;;;;;;6.70;62.59;99253.41;10422267;28;20317;-76
2023/12/10 02:00:28;;;;;;;16.00;5.37;;;;;;;6.88;62.11;99279.81;10443324;28;20335;-76
2023/12/10 02:05:43;;;;;;;15.53;4.63;;;;;;;7.10;62.23;99211.69;10425114;28;20240;-76
2023/12/10 02:10:58;;;;;;;15.93;5.03;;;;;;;6.90;62.56;99198.00;10381465;28;20320;-76
2023/12/10 02:16:07;;;;;;;12.10;4.50;;;;;;;6.34;63.33;99317.63;10385722;28;20276;-78
2023/12/10 02:21:16;;;;;;;10.60;4.03;;;;;;;6.61;62.87;99260.56;10400157;28;20258;-75
2023/12/10 02:26:25;;;;;;;10.80;4.40;;;;;;;7.06;62.14;99197.09;10397419;28;20244;-75
2023/12/10 02:31:33;;;;;;;19.50;5.00;;;;;;;6.52;63.29;99253.66;10402465;28;20237;-77
2023/12/10 02:36:41;;;;;;;19.10;4.63;;;;;;;6.91;62.20;99229.75;10389830;28;20232;-77
2023/12/10 02:41:49;;;;;;;15.43;4.10;;;;;;;6.94;61.62;99274.63;10358355;28;20260;-76
2023/12/10 02:46:57;;;;;;;15.23;4.47;;;;;;;6.37;62.16;99331.41;10394923;28;20241;-77
2023/12/10 02:52:05;;;;;;;16.77;6.10;;;;;;;6.39;62.24;99312.63;10381515;28;20236;-75
2023/12/10 02:57:13;;;;;;;19.87;5.40;;;;;;;7.08;61.34;99213.69;10391081;28;20236;-76
2023/12/10 03:02:24;;;;;;;12.50;5.00;;;;;;;6.39;61.58;99302.00;10397519;28;20232;-76
2023/12/10 03:07:39;;;;;;;18.80;4.90;;;;;;;6.98;59.93;99296.38;10403588;28;20235;-74
2023/12/10 03:12:47;;;;;;;15.07;3.83;;;;;;;6.71;59.99;99343.63;10412419;28;20304;-75
2023/12/10 03:18:02;;;;;;;10.73;5.33;;;;;;;6.87;59.58;99340.16;10415565;28;20233;-75
2023/12/10 03:23:11;;;;;;;17.07;4.93;;;;;;;7.24;58.81;99319.22;10418909;28;20299;-75
2023/12/10 03:28:18;;;;;;;11.87;4.07;;;;;;;6.62;58.93;99424.44;10410060;28;20706;-75
2023/12/10 03:33:26;;;;;;;14.07;4.20;;;;;;;6.47;58.79;99408.31;10420595;28;20243;-75
2023/12/10 03:38:34;;;;;;;14.97;4.00;;;;;;;6.88;57.85;99399.50;10403360;28;20219;-75
2023/12/10 03:43:42;;;;;;;15.97;5.17;;;;;;;7.53;57.57;99315.91;10403373;28;20266;-77
2023/12/10 03:48:51;;;;;;;14.90;5.03;;;;;;;6.99;58.80;99344.09;10413148;28;20228;-76
2023/12/10 03:54:00;;;;;;;11.27;4.67;;;;;;;6.95;58.51;99363.22;10414519;28;20512;-75
2023/12/10 03:59:08;;;;;;;13.73;4.47;;;;;;;7.49;57.11;99344.72;10414196;28;20225;-76
2023/12/10 04:04:23;;;;;;;11.87;4.53;;;;;;;6.59;58.51;99444.19;10413786;28;20244;-76
2023/12/10 04:09:38;;;;;;;12.17;4.50;;;;;;;7.00;57.73;99392.81;10418286;28;20709;-76
2023/12/10 04:14:50;;;;;;;13.67;4.30;;;;;;;6.85;57.75;99458.34;10346674;28;20221;-75
2023/12/10 04:19:57;;;;;;;10.23;4.53;;;;;;;6.89;57.54;99457.84;10363026;28;20202;-74
2023/12/10 04:25:12;;;;;;;18.10;4.30;;;;;;;6.10;58.93;99512.41;10352770;28;21378;-75
2023/12/10 04:30:20;;;;;;;11.77;3.63;;;;;;;6.36;59.16;99414.81;10357928;28;20237;-75
2023/12/10 04:35:28;;;;;;;10.57;3.87;;;;;;;6.06;58.70;99491.47;10353696;28;20244;-76
2023/12/10 04:40:36;;;;;;;17.87;4.40;;;;;;;6.05;58.87;99496.94;10358288;28;20266;-76
2023/12/10 04:45:45;;;;;;;13.47;3.63;;;;;;;5.98;58.76;99514.53;10358203;28;20303;-75
2023/12/10 04:50:52;;;;;;;11.03;4.00;;;;;;;6.44;58.76;99400.66;10354349;28;20315;-78
2023/12/10 04:56:01;;;;;;;12.93;3.87;;;;;;;5.99;58.88;99457.75;10357812;28;20685;-75
2023/12/10 05:01:10;;;;;;;10.70;4.27;;;;;;;5.49;59.09;99565.53;10358328;28;20284;-75
2023/12/10 05:06:25;;;;;;;17.67;4.77;;;;;;;6.38;57.93;99462.47;10353445;28;20233;-77
2023/12/10 05:11:33;;;;;;;11.37;3.43;;;;;;;6.98;57.31;99379.66;10360407;28;20259;-77
2023/12/10 05:16:41;;;;;;;8.03;3.23;;;;;;;6.05;57.69;99556.22;10361274;28;20310;-75
2023/12/10 05:21:49;;;;;;;8.87;3.33;;;;;;;6.12;58.05;99502.44;10360617;28;20718;-75
2023/12/10 05:26:57;;;;;;;11.30;3.67;;;;;;;6.89;56.73;99468.47;10357933;28;20795;-75
2023/12/10 05:32:06;;;;;;;10.40;3.37;;;;;;;6.72;57.04;99480.94;10346131;28;20283;-76
2023/12/10 05:37:13;;;;;;;16.37;4.23;;;;;;;7.25;56.79;99409.53;10358899;28;20237;-75
2023/12/10 05:42:22;;;;;;;17.90;3.70;;;;;;;6.92;56.62;99516.03;10341683;28;20233;-75
2023/12/10 05:47:31;;;;;;;10.17;2.87;;;;;;;6.35;57.27;99566.47;10358355;28;20269;-75
2023/12/10 05:52:40;;;;;;;12.03;4.27;;;;;;;7.23;55.54;99535.78;10356205;28;20675;-75
2023/12/10 05:57:48;;;;;;;10.40;2.93;;;;;;;7.32;55.62;99550.75;10357344;28;20245;-76
2023/12/10 06:02:55;;;;;;;15.87;3.87;;;;;;;6.20;57.94;99580.34;10359917;28;20233;-75
2023/12/10 06:08:10;;;;;;;10.63;4.23;;;;;;;5.86;57.82;99641.47;10353773;28;20668;-77
2023/12/10 06:13:18;;;;;;;9.83;3.37;;;;;;;6.46;57.13;99603.34;10358521;28;20237;-75
2023/12/10 06:18:27;;;;;;;10.93;4.00;;;;;;;6.46;57.38;99594.56;10355551;28;20257;-75
2023/12/10 06:23:35;;;;;;;11.73;3.67;;;;;;;7.28;55.81;99544.94;10356399;28;20233;-76
2023/12/10 06:28:43;;;;;;;8.87;4.03;;;;;;;6.83;56.10;99593.31;10356930;28;20322;-77
2023/12/10 06:33:50;;;;;;;12.03;3.93;;;;;;;6.30;57.72;99611.28;10357215;28;20481;-75
2023/12/10 06:38:59;;;;;;;10.23;3.80;;;;;;;6.23;57.45;99674.88;10354779;28;20989;-75
2023/12/10 06:44:09;;;;;;;11.50;4.07;;;;;;;6.24;57.28;99658.78;10355917;28;20267;-75
2023/12/10 06:49:18;;;;;;;13.90;5.20;;;;;;;6.51;57.00;99640.91;10356420;28;20239;-75
2023/12/10 06:54:27;;;;;;;10.80;4.37;;;;;;;6.62;57.47;99562.69;10348343;28;20838;-75
2023/12/10 06:59:35;;;;;;;8.93;4.10;;;;;;;6.67;56.87;99586.09;10355705;28;20237;-75
2023/12/10 07:04:49;;;;;;;10.33;4.40;;;;;;;6.02;57.78;99660.13;10352250;28;20244;-75
2023/12/10 07:10:05;;;;;;;11.10;3.80;;;;;;;6.14;58.41;99604.91;10349072;28;20230;-76
2023/12/10 07:15:13;;;;;;;10.60;3.83;;;;;;;6.49;57.83;99570.31;10341158;28;20251;-75
2023/12/10 07:20:21;;;;;;;13.03;3.77;;;;;;;5.76;58.65;99707.13;10358590;28;20742;-74
2023/12/10 07:25:29;;;;;;;12.93;4.20;;;;;;;6.28;58.50;99611.44;10358205;28;20767;-75
2023/12/10 07:30:37;;;;;;;13.87;3.70;;;;;;;6.40;57.76;99649.19;10360155;28;20263;-76
2023/12/10 07:35:45;;;;;;;12.23;3.87;;;;;;;5.79;58.72;99718.28;10351502;28;20670;-74
2023/12/10 07:40:54;;;;;;;11.60;3.50;;;;;;;6.58;57.22;99654.41;10358016;28;20308;-74
2023/12/10 07:46:02;;;;;;;9.63;4.10;;;;;;;6.28;58.45;99648.66;10354658;28;20232;-74
2023/12/10 07:51:10;;;;;;;13.17;4.57;;;;;;;6.89;57.63;99558.09;10360011;28;20738;-74
2023/12/10 07:56:18;;;;;;;11.23;3.77;;;;;;;6.83;57.19;99630.56;10358109;28;20327;-74
2023/12/10 08:01:26;;;;;;;8.00;3.70;;;;;;;6.16;58.15;99725.16;10365033;28;20230;-75
2023/12/10 08:06:40;;;;;;;15.00;4.43;;;;;;;6.55;58.49;99612.19;10351168;28;20233;-76
2023/12/10 08:11:49;;;;;;;9.03;3.23;;;;;;;6.31;59.08;99628.88;10364326;28;20311;-76
2023/12/10 08:16:57;;;;;;;9.87;3.90;;;;;;;6.99;57.55;99588.84;10355117;28;20233;-75
2023/12/10 08:22:05;;;;;;;10.43;4.10;;;;;;;6.14;58.20;99739.56;10339506;28;20229;-77
2023/12/10 08:27:14;;;;;;;15.13;5.00;;;;;;;6.62;57.68;99672.53;10347767;28;20249;-76
2023/12/10 08:32:22;;;;;;;13.70;4.00;;;;;;;6.76;57.28;99670.28;10340145;28;20240;-75
2023/12/10 08:37:34;;;;;;;12.97;4.50;;;;;;;7.48;56.23;99627.13;10353441;28;20332;-75
2023/12/10 08:42:42;;;;;;;13.17;4.17;;;;;;;7.29;55.89;99711.63;10337594;28;20276;-76
2023/12/10 08:47:50;;;;;;;7.27;3.27;;;;;;;6.79;56.62;99766.53;10354811;28;20237;-75
2023/12/10 08:52:59;;;;;;;11.83;4.50;;;;;;;6.72;57.53;99722.94;10361413;28;20236;-76
2023/12/10 08:58:07;;;;;;;11.53;4.33;;;;;;;6.70;57.20;99748.84;10352212;28;20237;-75
2023/12/10 09:03:15;;;;;;;8.77;4.27;;;;;;;6.61;57.44;99761.25;10355285;28;20361;-74
2023/12/10 09:08:30;;;;;;;10.43;3.83;;;;;;;7.10;56.82;99674.66;10354071;28;20878;-74
2023/12/10 09:13:41;;;;;;;9.27;3.27;;;;;;;6.80;57.34;99733.63;10353423;28;20837;-77
2023/12/10 09:18:49;;;;;;;11.33;4.50;;;;;;;7.37;56.07;99700.13;10354227;28;20328;-75
2023/12/10 09:23:57;;;;;;;13.73;4.63;;;;;;;7.44;55.99;99750.91;10350328;28;20256;-77
2023/12/10 09:29:05;;;;;;;9.40;3.97;;;;;;;6.93;56.37;99810.31;10356911;28;20237;-77
2023/12/10 09:34:15;;;;;;;10.53;4.23;;;;;;;6.94;57.01;99782.72;10349107;28;20321;-77
2023/12/10 09:39:26;;;;;;;11.80;5.17;;;;;;;7.76;55.74;99703.97;10357185;28;20249;-75
2023/12/10 09:44:35;;;;;;;12.10;4.40;;;;;;;6.73;57.08;99827.47;10347044;28;20237;-75
2023/12/10 09:49:43;;;;;;;11.17;3.73;;;;;;;7.21;56.44;99748.03;10349759;28;20292;-76
2023/12/10 09:54:55;;;;;;;6.00;3.20;;;;;;;7.41;56.41;99720.13;10390831;28;20304;-77
2023/12/10 10:00:06;;;;;;;12.70;3.83;;;;;;;7.80;55.72;99668.84;10398283;28;20208;-75
2023/12/10 10:05:15;;;;;;;12.83;5.20;;;;;;;7.61;55.57;99736.63;10396953;28;20241;-75
2023/12/10 10:10:30;;;;;;;14.70;4.17;;;;;;;7.84;55.66;99727.94;10401765;28;20464;-74
2023/12/10 10:15:38;;;;;;;9.90;4.07;;;;;;;7.22;56.21;99816.25;10412816;28;20374;-74
2023/12/10 10:20:53;;;;;;;9.07;3.43;;;;;;;7.93;55.28;99750.94;10408772;28;20266;-74
2023/12/10 10:26:01;;;;;;;8.53;3.70;;;;;;;8.00;55.27;99748.44;10401881;28;20232;-73
2023/12/10 10:31:12;;;;;;;11.03;3.53;;;;;;;7.31;56.88;99805.47;10402118;28;20229;-75
2023/12/10 10:36:21;;;;;;;11.67;3.97;;;;;;;8.23;55.87;99704.06;10396124;28;20247;-76
2023/12/10 10:41:30;;;;;;;8.67;3.90;;;;;;;8.04;56.21;99656.50;10402116;28;20236;-74
2023/12/10 10:46:39;;;;;;;8.57;3.53;;;;;;;7.99;56.19;99669.50;10402166;28;20228;-74
2023/12/10 10:51:48;;;;;;;13.50;4.23;;;;;;;8.17;55.28;99690.59;10399132;28;20314;-74
2023/12/10 10:56:57;;;;;;;11.63;3.50;;;;;;;7.11;56.07;99804.06;10407326;28;20576;-74
2023/12/10 11:06:24;;;;;;;12.87;4.67;;;;;;;6.25;59.83;99641.81;10194465;27;8295408;-81
2023/12/10 11:11:39;;;;;;;9.67;5.10;;;;;;;6.04;59.87;99646.69;10465934;28;21321;-74
2023/12/10 11:17:02;;;;;;;12.73;3.40;;;;;;;6.54;59.21;99568.81;10467318;28;20320;-73
2023/12/10 11:22:10;;;;;;;7.67;3.90;;;;;;;6.44;59.37;99587.56;10466075;28;20709;-74
2023/12/10 11:27:18;;;;;;;8.60;4.20;;;;;;;6.84;58.55;99547.94;10461347;28;20238;-74
2023/12/10 11:32:26;;;;;;;10.83;4.13;;;;;;;7.23;57.59;99539.28;10446454;28;20722;-74
2023/12/10 11:37:34;;;;;;;12.00;4.47;;;;;;;6.85;57.79;99596.66;10448898;28;20235;-74
2023/12/10 11:42:42;;;;;;;10.00;3.73;;;;;;;7.28;57.32;99560.91;10462526;28;20234;-75
2023/12/10 11:47:51;;;;;;;9.07;3.60;;;;;;;7.49;56.53;99580.84;10456969;28;20227;-74
2023/12/10 11:53:13;;;;;;;11.40;3.63;;;;;;;6.82;57.13;99661.66;10460943;28;20751;-73
2023/12/10 11:58:28;;;;;;;10.03;4.20;;;;;;;7.89;55.62;99579.09;10460213;28;20718;-74
2023/12/10 12:03:43;;;;;;;8.90;3.40;;;;;;;7.46;55.95;99687.66;10419998;28;20261;-74
2023/12/10 12:08:51;;;;;;;6.63;3.20;;;;;;;7.56;56.17;99653.75;10382370;28;20231;-72
2023/12/10 12:14:01;;;;;;;12.80;4.27;;;;;;;7.47;56.20;99665.38;10346020;28;20598;-72
2023/12/10 12:19:28;;;;;;;9.93;3.53;;;;;;;7.42;56.06;99678.34;10340440;28;20254;-72
2023/12/10 12:24:39;;;;;;;11.03;3.87;;;;;;;7.28;56.39;99606.16;10338245;28;20256;-79
2023/12/10 12:29:47;;;;;;;8.57;3.97;;;;;;;7.48;56.06;99603.16;10354415;28;20233;-71
2023/12/10 12:34:56;;;;;;;9.23;3.80;;;;;;;7.78;55.81;99588.28;10344724;28;20668;-72
2023/12/10 12:40:06;;;;;;;7.77;3.27;;;;;;;7.57;55.99;99620.75;10353305;28;20264;-73
2023/12/10 12:45:16;;;;;;;8.33;3.43;;;;;;;5.84;57.69;99806.28;10328526;28;20245;-72
2023/12/10 12:50:24;;;;;;;10.83;3.90;;;;;;;6.34;58.85;99591.34;10345947;28;20236;-73
2023/12/10 12:55:32;;;;;;;9.07;3.60;;;;;;;6.71;58.70;99523.63;10344321;28;20324;-72
2023/12/10 13:00:40;;;;;;;10.30;3.63;;;;;;;6.54;58.04;99606.03;10344694;28;20248;-73
2023/12/10 13:06:02;;;;;;;6.10;2.77;;;;;;;6.60;57.62;99634.66;10416920;28;20229;-72
2023/12/10 13:11:11;;;;;;;10.60;3.50;;;;;;;7.34;56.72;99536.28;10430522;28;20738;-73
2023/12/10 13:16:19;;;;;;;9.13;3.80;;;;;;;6.73;56.58;99670.56;10432145;28;20711;-73
2023/12/10 13:21:34;;;;;;;11.30;3.67;;;;;;;7.21;56.72;99593.66;10417635;28;20243;-71
2023/12/10 13:26:43;;;;;;;6.67;3.53;;;;;;;6.25;58.90;99587.84;10428042;28;20226;-72
2023/12/10 13:31:58;;;;;;;6.67;3.33;;;;;;;6.45;58.65;99585.75;10426272;28;20319;-70
2023/12/10 13:37:06;;;;;;;8.70;3.30;;;;;;;6.84;57.88;99547.94;10423144;28;20663;-73
2023/12/10 13:42:14;;;;;;;11.17;3.77;;;;;;;6.83;57.68;99578.19;10430209;28;20718;-74
2023/12/10 13:47:22;;;;;;;10.00;3.77;;;;;;;6.73;58.23;99567.66;10421965;28;20610;-82
2023/12/10 13:52:31;;;;;;;12.90;3.47;;;;;;;7.08;58.03;99511.69;10414057;28;20315;-70
2023/12/10 13:57:42;;;;;;;8.87;3.73;;;;;;;7.60;56.69;99550.38;10424331;28;20337;-72
2023/12/10 14:02:57;;;;;;;13.60;4.00;;;;;;;7.49;56.75;99507.13;10424593;28;20239;-72
2023/12/10 14:08:12;;;;;;;10.20;4.53;;;;;;;6.90;58.16;99563.25;10428095;28;20228;-73
2023/12/10 14:13:20;;;;;;;7.73;3.13;;;;;;;7.63;56.42;99515.38;10426991;28;20243;-72
2023/12/10 14:18:28;;;;;;;12.83;3.47;;;;;;;6.91;57.65;99574.72;10427527;28;20327;-72
2023/12/10 14:23:37;;;;;;;11.13;3.90;;;;;;;7.14;58.33;99453.31;10421473;28;20670;-71
2023/12/10 14:28:45;;;;;;;7.13;3.27;;;;;;;7.88;56.18;99478.84;10423897;28;20664;-72
2023/12/10 14:33:54;;;;;;;10.27;3.80;;;;;;;7.22;58.19;99487.03;10420122;28;20239;-73
2023/12/10 14:39:05;;;;;;;12.00;3.90;;;;;;;7.60;57.22;99519.22;10426213;28;20445;-71
2023/12/10 14:44:13;;;;;;;8.53;3.80;;;;;;;7.19;58.34;99490.06;10423243;28;20258;-74
2023/12/10 14:49:21;;;;;;;6.70;3.37;;;;;;;7.49;57.50;99480.50;10429668;28;20260;-72
2023/12/10 14:54:30;;;;;;;10.33;4.20;;;;;;;7.29;57.84;99521.78;10424956;28;20246;-72
2023/12/10 14:59:37;;;;;;;8.97;4.07;;;;;;;7.34;58.24;99474.19;10429809;28;20238;-72
2023/12/10 15:04:52;;;;;;;13.57;3.53;;;;;;;6.99;58.84;99517.03;10406365;28;20323;-72
2023/12/10 15:10:00;;;;;;;10.27;3.10;;;;;;;6.65;60.12;99495.03;10432664;28;20517;-72
2023/12/10 15:15:11;;;;;;;9.30;3.70;;;;;;;6.69;59.38;99525.63;10412476;28;20378;-73
2023/12/10 15:20:19;;;;;;;11.50;4.90;;;;;;;5.69;60.58;99585.59;10427341;28;20252;-72
2023/12/10 15:25:27;;;;;;;6.13;3.23;;;;;;;6.88;59.18;99392.34;10425692;28;20232;-73
2023/12/10 15:30:35;;;;;;;12.27;3.80;;;;;;;6.65;59.86;99375.41;10422784;28;20672;-72
2023/12/10 15:35:43;;;;;;;8.47;3.53;;;;;;;5.94;59.92;99489.28;10430682;28;20286;-72
2023/12/10 15:40:52;;;;;;;8.37;3.33;;;;;;;6.78;58.80;99370.41;10419714;28;20232;-71
2023/12/10 15:46:01;;;;;;;8.67;3.60;;;;;;;6.60;58.48;99426.44;10410144;28;20294;-73
2023/12/10 15:51:08;;;;;;;12.63;5.27;;;;;;;6.54;58.64;99390.69;10426686;28;20238;-72
2023/12/10 15:56:16;;;;;;;8.43;2.93;;;;;;;6.59;58.54;99350.31;10421522;28;20290;-73
2023/12/10 16:01:24;;;;;;;8.23;3.37;;;;;;;6.67;57.98;99370.72;10411712;28;20262;-73
2023/12/10 16:06:39;;;;;;;11.17;3.60;;;;;;;6.68;57.79;99351.94;10431540;28;20239;-73
2023/12/10 16:11:48;;;;;;;6.60;3.30;;;;;;;6.20;58.50;99425.41;10431777;28;20232;-72
2023/12/10 16:16:56;;;;;;;11.03;4.27;;;;;;;5.85;58.72;99469.81;10414874;28;20236;-72
2023/12/10 16:22:05;;;;;;;14.87;3.70;;;;;;;6.38;59.02;99279.06;10426749;28;20778;-72
2023/12/10 16:27:19;;;;;;;9.80;3.30;;;;;;;6.58;58.29;99275.06;10424479;28;20232;-72
2023/12/10 16:32:28;;;;;;;5.50;3.10;;;;;;;5.64;59.36;99410.03;10433651;28;20227;-71
2023/12/10 16:37:36;;;;;;;9.73;3.63;;;;;;;6.45;57.99;99282.72;10426877;28;20235;-74
2023/12/10 16:42:44;;;;;;;11.07;3.50;;;;;;;5.26;59.33;99459.91;10424455;28;20234;-74
2023/12/10 16:47:53;;;;;;;15.47;3.53;;;;;;;6.05;58.70;99303.03;10416801;28;20235;-72
2023/12/10 16:53:01;;;;;;;10.27;3.77;;;;;;;5.83;58.75;99339.88;10424516;28;20232;-71
2023/12/10 16:58:09;;;;;;;7.77;3.60;;;;;;;6.63;58.11;99163.72;10426599;28;20240;-72
2023/12/10 17:03:23;;;;;;;7.50;3.63;;;;;;;6.22;58.30;99261.34;10425778;28;20237;-72
2023/12/10 17:08:42;;;;;;;8.63;4.57;;;;;;;6.37;57.95;99226.94;10431048;28;20242;-72
2023/12/10 17:13:51;;;;;;;11.20;3.67;;;;;;;6.14;57.48;99346.38;10428832;28;20259;-71
2023/12/10 17:18:59;;;;;;;5.20;3.30;;;;;;;5.51;60.04;99261.00;10440768;28;20241;-73
2023/12/10 17:24:07;;;;;;;9.00;3.57;;;;;;;5.69;59.81;99219.22;10427011;28;20228;-73
2023/12/10 17:29:15;;;;;;;11.00;3.20;;;;;;;5.47;59.72;99288.88;10433080;28;20625;-71
2023/12/10 17:34:23;;;;;;;9.00;4.27;;;;;;;5.91;59.08;99224.00;10431256;28;20784;-73
2023/12/10 17:39:31;;;;;;;12.20;4.00;;;;;;;6.46;58.58;99108.13;10438576;28;20345;-73
2023/12/10 17:44:39;;;;;;;15.23;3.97;;;;;;;6.37;58.55;99123.28;10431617;28;20228;-73
2023/12/10 17:50:04;;;;;;;8.20;3.70;;;;;;;6.04;58.82;99126.06;10441552;28;20642;-71
2023/12/10 17:55:15;;;;;;;4.20;3.40;;;;;;;5.03;60.93;99170.56;10419842;28;20239;-71
2023/12/10 18:00:27;;;;;;;8.23;4.20;;;;;;;5.29;59.79;99212.03;10434874;28;21222;-72
2023/12/10 18:05:42;;;;;;;7.07;3.13;;;;;;;5.25;59.98;99211.53;10397089;28;20605;-71
2023/12/10 18:10:50;;;;;;;12.53;3.40;;;;;;;5.47;59.43;99133.13;10373317;28;20228;-73
2023/12/10 18:15:58;;;;;;;6.13;3.27;;;;;;;6.14;58.59;99028.38;10394139;28;20240;-71
2023/12/10 18:21:06;;;;;;;8.80;2.90;;;;;;;5.81;59.01;99084.31;10384421;28;20593;-71
2023/12/10 18:26:15;;;;;;;6.50;3.07;;;;;;;5.58;59.74;99076.19;10388514;28;20235;-72
2023/12/10 18:31:23;;;;;;;9.07;3.60;;;;;;;5.45;59.57;99139.56;10374531;28;20287;-73
2023/12/10 18:36:37;;;;;;;7.47;3.37;;;;;;;5.99;58.70;99025.66;10381359;28;20236;-71
2023/12/10 18:41:46;;;;;;;12.87;4.30;;;;;;;6.11;58.45;99022.59;10387642;28;20312;-72
2023/12/10 18:46:54;;;;;;;13.77;4.40;;;;;;;5.86;58.71;99023.56;10389090;28;20264;-72
2023/12/10 18:52:02;;;;;;;8.33;3.23;;;;;;;6.18;58.26;98957.16;10388692;28;20236;-73
2023/12/10 18:57:10;;;;;;;8.00;3.17;;;;;;;6.05;58.15;98989.59;10372949;28;20517;-72
2023/12/10 19:02:24;;;;;;;4.93;2.70;;;;;;;5.88;57.96;99010.09;10372218;28;20360;-72
2023/12/10 19:07:40;;;;;;;9.60;2.60;;;;;;;5.38;57.51;99157.97;10388355;28;20285;-71
2023/12/10 19:12:48;;;;;;;8.07;3.30;;;;;;;6.20;57.01;99003.78;10393344;28;20724;-72
2023/12/10 19:17:56;;;;;;;6.13;3.60;;;;;;;6.40;56.17;98990.06;10384538;28;20239;-71
2023/12/10 19:23:10;;;;;;;7.53;2.93;;;;;;;5.95;56.68;99023.53;10388209;28;20231;-71
2023/12/10 19:28:19;;;;;;;5.90;3.40;;;;;;;6.31;55.63;98981.28;10401795;28;20319;-72
2023/12/10 19:33:27;;;;;;;8.43;3.70;;;;;;;6.33;55.49;98966.03;10401803;28;20686;-72
2023/12/10 19:38:35;;;;;;;7.40;3.10;;;;;;;6.27;54.73;98995.94;10398014;28;20813;-71
2023/12/10 19:43:43;;;;;;;5.97;2.70;;;;;;;6.73;53.56;98936.63;10397045;28;20232;-71
2023/12/10 19:48:51;;;;;;;5.17;3.77;;;;;;;7.24;53.38;98849.03;10383568;28;20309;-73
2023/12/10 19:53:59;;;;;;;5.17;2.97;;;;;;;7.10;53.18;98863.16;10380832;28;20323;-71
2023/12/10 19:59:08;;;;;;;5.13;2.50;;;;;;;6.75;53.09;98946.13;10395436;28;20616;-73
2023/12/10 20:04:22;;;;;;;6.03;3.07;;;;;;;7.30;52.57;98874.88;10397592;28;20251;-73
2023/12/10 20:09:38;;;;;;;6.90;3.20;;;;;;;6.77;52.86;98904.22;10398739;28;20232;-73
2023/12/10 20:14:46;;;;;;;5.07;3.00;;;;;;;7.24;52.66;98899.59;10395290;28;20232;-74
2023/12/10 20:19:54;;;;;;;4.20;2.60;;;;;;;7.02;53.78;98906.66;10384470;28;20224;-72
2023/12/10 20:25:04;;;;;;;4.37;2.60;;;;;;;6.37;54.36;98971.81;10400582;28;20271;-72
2023/12/10 20:30:20;;;;;;;5.23;2.40;;;;;;;6.24;55.19;98999.81;10392026;28;20620;-72
2023/12/10 20:35:28;;;;;;;7.03;2.50;;;;;;;6.24;55.63;98970.56;10390976;28;20244;-72
2023/12/10 20:40:40;;;;;;;9.07;3.30;;;;;;;6.34;56.85;98866.69;10391653;28;20402;-73
2023/12/10 20:45:54;;;;;;;4.10;2.53;;;;;;;5.72;57.99;99028.75;10393789;28;20232;-73
2023/12/10 20:51:03;;;;;;;5.77;2.50;;;;;;;5.32;60.76;98935.81;10393073;28;20232;-72
2023/12/10 20:56:12;;;;;;;4.30;2.93;;;;;;;5.84;60.82;98807.84;10428614;28;20320;-73
2023/12/10 21:01:32;;;;;;;4.47;2.77;;;;;;;6.04;59.18;98807.34;10437629;28;20668;-73
2023/12/10 21:06:48;;;;;;;2.80;2.60;;;;;;;6.92;57.69;98778.41;10436126;28;20231;-73
2023/12/10 21:11:56;;;;;;;6.97;2.83;;;;;;;6.37;58.44;98890.25;10427687;28;20286;-73
2023/12/10 21:17:05;;;;;;;5.73;2.57;;;;;;;6.28;58.38;98909.94;10434631;28;20247;-73
2023/12/10 21:22:18;;;;;;;7.63;2.60;;;;;;;5.96;59.55;98825.97;10438476;28;20227;-74
2023/12/10 21:27:26;;;;;;;3.57;2.30;;;;;;;6.09;58.72;98783.72;10435631;28;20239;-75
2023/12/10 21:32:35;;;;;;;6.00;2.30;;;;;;;5.86;58.99;98821.75;10430288;28;20232;-72
2023/12/10 21:37:43;;;;;;;2.70;2.10;;;;;;;5.99;58.10;98846.88;10415318;28;20240;-74
2023/12/10 21:42:51;;;;;;;3.33;2.50;;;;;;;5.73;58.07;98914.41;10423504;28;20657;-74
2023/12/10 21:47:59;;;;;;;2.93;2.03;;;;;;;5.86;57.99;98850.97;10429229;28;20231;-73
2023/12/10 21:53:16;;;;;;;1.97;1.73;;;;;;;5.82;58.15;98860.28;10415963;28;20404;-73
2023/12/10 21:58:25;;;;;;;3.23;2.30;;;;;;;6.06;58.91;98810.66;10410457;28;20706;-73
2023/12/10 22:03:50;;;;;;;2.93;2.17;;;;;;;6.04;59.71;98832.09;10433665;28;20331;-73
2023/12/10 22:08:58;;;;;;;2.87;2.00;;;;;;;6.15;59.75;98820.19;10431064;28;20246;-72
2023/12/10 22:14:06;;;;;;;3.13;2.87;;;;;;;5.75;62.23;98846.03;10423981;28;20701;-73
2023/12/10 22:19:16;;;;;;;2.63;1.93;;;;;;;5.10;65.59;98868.41;10410783;28;20236;-72
2023/12/10 22:24:24;;;;;;;4.53;2.27;;;;;;;5.84;63.65;98807.84;10412319;28;20554;-74
2023/12/10 22:29:32;;;;;;;2.43;2.30;;;;;;;5.57;64.13;98880.81;10426820;28;20310;-72
2023/12/10 22:34:40;;;;;;;2.83;2.10;;;;;;;5.04;65.89;98875.19;10412388;28;20555;-74
2023/12/10 22:39:48;;;;;;;3.50;2.20;;;;;;;5.78;64.35;98842.22;10434263;28;20228;-74
2023/12/10 22:44:57;;;;;;;2.60;2.20;;;;;;;6.52;63.04;98777.84;10427359;28;20228;-74
2023/12/10 22:50:06;;;;;;;4.33;2.20;;;;;;;6.66;63.26;98795.63;10426909;28;20686;-73
2023/12/10 22:55:21;;;;;;;2.77;2.37;;;;;;;5.88;65.03;98854.25;10425361;28;20236;-73
2023/12/10 23:00:30;;;;;;;2.63;2.10;;;;;;;7.32;61.16;98843.56;10429468;28;20232;-74
2023/12/10 23:05:44;;;;;;;2.77;2.10;;;;;;;6.23;64.11;98854.66;10431643;28;20285;-73
2023/12/10 23:10:53;;;;;;;2.40;2.17;;;;;;;6.76;62.27;98893.78;10429135;28;20224;-74
2023/12/10 23:16:05;;;;;;;4.90;2.10;;;;;;;7.09;62.37;98840.19;10426509;28;20313;-74
2023/12/10 23:21:14;;;;;;;2.37;2.17;;;;;;;6.40;64.28;98966.16;10408377;28;20232;-73
2023/12/10 23:26:22;;;;;;;4.13;3.10;;;;;;;5.71;67.56;98916.44;10430557;28;20794;-73
2023/12/10 23:31:30;;;;;;;3.60;2.30;;;;;;;6.75;65.84;98806.97;10430632;28;20235;-73
2023/12/10 23:36:38;;;;;;;2.27;2.07;;;;;;;7.59;63.49;98817.25;10426404;28;20326;-73
2023/12/10 23:41:46;;;;;;;2.30;2.10;;;;;;;6.89;65.74;98853.25;10430317;28;20232;-73
2023/12/10 23:46:54;;;;;;;2.43;2.23;;;;;;;7.88;63.38;98784.41;10423912;28;20513;-74
2023/12/10 23:52:02;;;;;;;2.23;2.13;;;;;;;6.85;65.84;98873.22;10426535;28;20242;-74
2023/12/10 23:57:17;;;;;;;2.67;2.37;;;;;;;7.31;65.02;98865.91;10407334;28;20236;-73
